createdAt,value
2023-04-19T00:02:23.845Z,99790.72
2023-04-19T00:04:50.422Z,99792.22
2023-04-19T00:07:16.938Z,99774.19
2023-04-19T00:09:43.361Z,99779.88
2023-04-19T00:12:09.782Z,99785.53
2023-04-19T00:14:36.113Z,99783.91
2023-04-19T00:17:02.655Z,99793.56
2023-04-19T00:19:29.055Z,99787.03
2023-04-19T00:21:55.535Z,99773.19
2023-04-19T00:24:21.962Z,99752.69
2023-04-19T00:26:48.588Z,99767.38
2023-04-19T00:29:15.142Z,99783.88
2023-04-19T00:31:41.492Z,99780.72
2023-04-19T00:34:07.884Z,99781.56
2023-04-19T00:36:34.247Z,99791.41
2023-04-19T00:39:00.681Z,99792.38
2023-04-19T00:41:27.168Z,99778.06
2023-04-19T00:43:53.568Z,99789.88
2023-04-19T00:46:20.599Z,99799.22
2023-04-19T00:48:48.088Z,99785.72
2023-04-19T00:51:14.626Z,99784.69
2023-04-19T00:53:41.760Z,99786.88
2023-04-19T00:56:09.588Z,99787.03
2023-04-19T00:58:38.069Z,99743.34
2023-04-19T01:01:04.434Z,99764.38
2023-04-19T01:03:31.112Z,99770.22
2023-04-19T01:05:58.312Z,99778.06
2023-04-19T01:08:24.693Z,99789.56
2023-04-19T01:10:51.325Z,99796.38
2023-04-19T01:13:18.031Z,99778.72
2023-04-19T01:15:44.598Z,99783.53
2023-04-19T01:18:11.930Z,99781.22
2023-04-19T01:20:38.361Z,99790.69
2023-04-19T01:23:04.818Z,99796.22
2023-04-19T01:25:31.291Z,99781.72
2023-04-19T01:27:57.678Z,99789.72
2023-04-19T01:30:24.095Z,99795.06
2023-04-19T01:32:50.660Z,99778.88
2023-04-19T01:35:17.405Z,99773.53
2023-04-19T01:37:43.772Z,99766.22
2023-04-19T01:40:11.041Z,99774.69
2023-04-19T01:42:37.553Z,99774.06
2023-04-19T01:45:04.419Z,99775.03
2023-04-19T01:47:33.552Z,99782.19
2023-04-19T01:49:59.966Z,99765.88
2023-04-19T01:52:26.361Z,99783.53
2023-04-19T01:54:53.084Z,99787.72
2023-04-19T01:57:19.578Z,99783.53
2023-04-19T01:59:46.235Z,99792.53
2023-04-19T02:02:12.683Z,99800.34
2023-04-19T02:04:39.198Z,99804.00
2023-04-19T02:07:05.608Z,99806.66
2023-04-19T02:09:35.782Z,99802.69
2023-04-19T02:12:02.341Z,99801.84
2023-04-19T02:14:29.170Z,99798.50
2023-04-19T02:16:55.696Z,99800.16
2023-04-19T02:19:22.527Z,99798.81
2023-04-19T02:21:48.960Z,99795.19
2023-04-19T02:24:15.994Z,99786.84
2023-04-19T02:26:42.555Z,99784.03
2023-04-19T02:29:09.345Z,99786.19
2023-04-19T02:31:36.478Z,99795.16
2023-04-19T02:34:02.882Z,99777.31
2023-04-19T02:36:29.306Z,99791.50
2023-04-19T02:38:55.795Z,99756.84
2023-04-19T02:41:22.299Z,99771.00
2023-04-19T02:43:49.020Z,99799.78
2023-04-19T02:46:15.434Z,99813.09
2023-04-19T02:48:42.160Z,99811.78
2023-04-19T02:51:08.601Z,99794.28
2023-04-19T02:53:35.261Z,99796.28
2023-04-19T02:56:02.355Z,99804.25
2023-04-19T02:58:29.022Z,99812.72
2023-04-19T03:00:55.512Z,99809.38
2023-04-19T03:03:21.909Z,99817.53
2023-04-19T03:05:48.635Z,99818.97
2023-04-19T03:08:15.363Z,99818.97
2023-04-19T03:10:42.526Z,99832.75
2023-04-19T03:13:08.861Z,99852.19
2023-04-19T03:15:35.381Z,99860.00
2023-04-19T03:18:01.868Z,99868.94
2023-04-19T03:20:28.336Z,99873.03
2023-04-19T03:22:54.803Z,99892.47
2023-04-19T03:25:21.580Z,99904.09
2023-04-19T03:27:48.282Z,99901.63
2023-04-19T03:30:15.435Z,99894.31
2023-04-19T03:32:41.968Z,99893.25
2023-04-19T03:35:09.139Z,99901.19
2023-04-19T03:37:35.678Z,99910.22
2023-04-19T03:40:02.383Z,99885.22
2023-04-19T03:42:29.246Z,99899.66
2023-04-19T03:44:56.730Z,99896.41
2023-04-19T03:47:23.298Z,99923.31
2023-04-19T03:49:49.745Z,99928.09
2023-04-19T03:52:16.379Z,99927.19
2023-04-19T03:54:43.053Z,99944.88
2023-04-19T03:57:09.581Z,99964.09
2023-04-19T03:59:35.988Z,99971.41
2023-04-19T04:02:02.761Z,99979.69
2023-04-19T04:04:29.492Z,99987.56
2023-04-19T04:06:56.320Z,100001.03
2023-04-19T04:09:22.759Z,100021.31
2023-04-19T04:11:49.206Z,100004.88
2023-04-19T04:14:15.741Z,99992.00
2023-04-19T04:16:42.455Z,99986.06
2023-04-19T04:19:09.065Z,99989.94
2023-04-19T04:21:35.836Z,100007.19
2023-04-19T04:24:02.250Z,100012.25
2023-04-19T04:26:28.850Z,100033.22
2023-04-19T04:28:55.232Z,100028.75
2023-04-19T04:31:21.777Z,100025.91
2023-04-19T04:33:48.253Z,100016.69
2023-04-19T04:36:14.642Z,100014.75
2023-04-19T04:38:41.170Z,100023.31
2023-04-19T04:41:07.688Z,100031.75
2023-04-19T04:43:34.175Z,100041.38
2023-04-19T04:46:02.068Z,100041.53
2023-04-19T04:48:28.807Z,100044.34
2023-04-19T04:50:55.299Z,100053.00
2023-04-19T04:53:22.088Z,100056.50
2023-04-19T04:55:48.926Z,100050.72
2023-04-19T04:58:15.756Z,100033.81
2023-04-19T05:00:42.189Z,100036.06
2023-04-19T05:03:08.689Z,99983.06
2023-04-19T05:05:35.524Z,99963.06
2023-04-19T05:08:01.937Z,99966.44
2023-04-19T05:10:28.461Z,99976.59
2023-04-19T05:12:55.114Z,99976.13
2023-04-19T05:15:22.396Z,99973.03
2023-04-19T05:17:48.976Z,99968.41
2023-04-19T05:20:15.633Z,99970.00
2023-04-19T05:22:41.997Z,99956.47
2023-04-19T05:25:10.597Z,99932.19
2023-04-19T05:27:37.262Z,99913.25
2023-04-19T05:30:05.190Z,99895.72
2023-04-19T05:32:31.723Z,99886.47
2023-04-19T05:34:58.566Z,99872.88
2023-04-19T05:37:24.971Z,99836.28
2023-04-19T05:39:51.432Z,99846.25
2023-04-19T05:42:19.301Z,99780.66
2023-04-19T05:44:45.664Z,99780.06
2023-04-19T05:47:12.078Z,99777.44
2023-04-19T05:49:41.266Z,99763.47
2023-04-19T05:52:08.755Z,99777.63
2023-04-19T05:54:35.386Z,99790.06
2023-04-19T05:57:05.246Z,99777.81
2023-04-19T05:59:31.929Z,99764.81
2023-04-19T06:01:58.534Z,99764.44
2023-04-19T06:04:25.508Z,99762.47
2023-04-19T06:06:54.753Z,99745.34
2023-04-19T06:09:24.428Z,99747.38
2023-04-19T06:11:52.068Z,99748.19
2023-04-19T06:14:19.106Z,99720.19
2023-04-19T06:16:46.057Z,99703.03
2023-04-19T06:19:12.534Z,99691.22
2023-04-19T06:21:39.409Z,99672.88
2023-04-19T06:24:08.587Z,99684.53
2023-04-19T06:26:35.122Z,99691.69
2023-04-19T06:29:02.677Z,99667.53
2023-04-19T06:31:29.436Z,99662.13
2023-04-19T06:33:55.877Z,99643.47
2023-04-19T06:36:22.319Z,99642.09
2023-04-19T06:38:48.755Z,99630.06
2023-04-19T06:41:15.297Z,99621.72
2023-04-19T06:43:42.159Z,99600.66
2023-04-19T06:46:08.887Z,99578.63
2023-04-19T06:48:35.613Z,99579.75
2023-04-19T06:51:02.365Z,99588.78
2023-04-19T06:53:29.081Z,99590.72
2023-04-19T06:56:00.250Z,99586.38
2023-04-19T06:58:27.690Z,99565.88
2023-04-19T07:00:55.162Z,99565.06
2023-04-19T07:03:22.756Z,99525.50
2023-04-19T07:05:49.757Z,99521.84
2023-04-19T07:08:16.461Z,99503.28
2023-04-19T07:10:43.028Z,99492.47
2023-04-19T07:13:11.330Z,99467.59
2023-04-19T07:15:37.969Z,99449.66
2023-04-19T07:18:04.771Z,99414.38
2023-04-19T07:20:31.567Z,99429.94
2023-04-19T07:23:00.806Z,99372.75
2023-04-19T07:25:27.727Z,99378.84
2023-04-19T07:27:55.883Z,99371.94
2023-04-19T07:30:23.665Z,99387.75
2023-04-19T07:32:52.594Z,99378.25
2023-04-19T07:35:19.204Z,99355.84
2023-04-19T07:37:46.072Z,99358.28
2023-04-19T07:40:13.382Z,99345.09
2023-04-19T07:42:40.070Z,99320.41
2023-04-19T07:45:07.337Z,99298.25
2023-04-19T07:47:36.159Z,99305.03
2023-04-19T07:50:04.840Z,99283.28
2023-04-19T07:52:31.225Z,99278.03
2023-04-19T07:54:57.576Z,99277.53
2023-04-19T07:57:24.012Z,99215.25
2023-04-19T07:59:50.740Z,99243.53
2023-04-19T08:02:17.767Z,99296.50
2023-04-19T08:04:45.441Z,99288.63
2023-04-19T08:07:12.527Z,99287.28
2023-04-19T08:09:39.142Z,99285.38
2023-04-19T08:12:05.782Z,99316.47
2023-04-19T08:14:38.046Z,99319.19
2023-04-19T08:17:25.544Z,99305.25
2023-04-19T08:19:53.560Z,99289.97
2023-04-19T08:22:21.697Z,99278.31
2023-04-19T08:24:50.513Z,99280.47
2023-04-19T08:27:16.899Z,99254.34
2023-04-19T08:29:43.725Z,99235.94
2023-04-19T08:32:12.614Z,99262.81
2023-04-19T08:34:40.023Z,99282.41
2023-04-19T08:37:07.167Z,99276.97
2023-04-19T08:39:35.511Z,99283.78
2023-04-19T08:42:13.202Z,99290.16
2023-04-19T08:45:13.671Z,99262.94
2023-04-19T08:47:58.813Z,99248.47
2023-04-19T08:50:48.396Z,99258.53
2023-04-19T08:53:26.118Z,99258.28
2023-04-19T08:58:32.952Z,99254.63
2023-04-19T09:01:08.172Z,99255.66
2023-04-19T09:03:44.270Z,99249.81
2023-04-19T09:06:20.051Z,99260.56
2023-04-19T09:08:46.611Z,99246.06
2023-04-19T09:11:13.523Z,99242.69
2023-04-19T09:13:40.652Z,99232.38
2023-04-19T09:16:07.521Z,99209.63
2023-04-19T09:18:59.925Z,99198.56
2023-04-19T09:21:34.067Z,99186.75
2023-04-19T09:24:02.424Z,99193.84
2023-04-19T09:26:30.730Z,99176.19
2023-04-19T09:29:02.114Z,99175.06
2023-04-19T09:31:48.137Z,99146.50
2023-04-19T09:34:20.404Z,99142.06
2023-04-19T09:36:47.118Z,99123.72
2023-04-19T09:39:14.387Z,99114.22
2023-04-19T09:41:54.561Z,99106.59
2023-04-19T09:46:53.893Z,99086.72
2023-04-19T09:49:36.960Z,99076.22
2023-04-19T09:52:10.513Z,99078.72
2023-04-19T09:54:38.229Z,99075.63
2023-04-19T09:57:05.216Z,99075.00
2023-04-19T09:59:32.019Z,99072.75
2023-04-19T10:02:01.207Z,99074.81
2023-04-19T10:04:44.080Z,99082.06
2023-04-19T10:07:30.242Z,99080.47
2023-04-19T10:10:11.664Z,99089.41
2023-04-19T10:13:11.583Z,99087.38
2023-04-19T10:18:08.841Z,99072.78
2023-04-19T10:20:50.424Z,99064.72
2023-04-19T10:23:17.792Z,99066.13
2023-04-19T10:25:48.187Z,99056.84
2023-04-19T10:28:16.764Z,99058.13
2023-04-19T10:31:05.197Z,99056.25
2023-04-19T10:33:36.242Z,99061.41
2023-04-19T10:36:03.419Z,99060.78
2023-04-19T10:38:44.044Z,99069.06
2023-04-19T10:41:10.652Z,99068.25
2023-04-19T10:43:38.614Z,99064.13
2023-04-19T10:46:11.214Z,99056.25
2023-04-19T10:48:43.027Z,99063.06
2023-04-19T10:51:17.536Z,99050.25
2023-04-19T10:53:45.381Z,99048.63
2023-04-19T10:56:12.227Z,99058.94
2023-04-19T10:59:00.685Z,99053.59
2023-04-19T11:01:37.634Z,99049.47
2023-04-19T11:04:04.793Z,99042.00
2023-04-19T11:06:32.434Z,99038.53
2023-04-19T11:08:59.692Z,99034.78
2023-04-19T11:11:26.746Z,99020.59
2023-04-19T11:13:56.340Z,99024.72
2023-04-19T11:16:31.319Z,99015.81
2023-04-19T11:19:08.713Z,99025.72
2023-04-19T11:21:40.542Z,99016.47
2023-04-19T11:24:11.494Z,99028.59
2023-04-19T11:26:38.239Z,99020.16
2023-04-19T11:29:05.184Z,99024.88
2023-04-19T11:31:34.737Z,99022.81
2023-04-19T11:34:03.055Z,99029.22
2023-04-19T11:36:29.450Z,99026.97
2023-04-19T11:38:56.286Z,99029.66
2023-04-19T11:41:22.791Z,99046.28
2023-04-19T11:43:51.148Z,99047.34
2023-04-19T11:46:18.839Z,99048.69
2023-04-19T11:48:54.614Z,99077.38
2023-04-19T11:51:22.139Z,99107.28
2023-04-19T11:53:48.686Z,99130.34
2023-04-19T11:56:15.703Z,99152.59
2023-04-19T11:58:43.330Z,99157.25
2023-04-19T12:01:14.517Z,99183.94
2023-04-19T12:03:45.301Z,99180.50
2023-04-19T12:06:17.982Z,99195.84
2023-04-19T12:08:49.279Z,99233.44
2023-04-19T12:11:19.153Z,99277.53
2023-04-19T12:13:45.718Z,99283.56
2023-04-19T12:16:13.872Z,99352.69
2023-04-19T12:18:51.459Z,99426.78
2023-04-19T12:21:31.811Z,99470.44
2023-04-19T12:24:00.600Z,99489.19
2023-04-19T12:26:28.682Z,99529.38
2023-04-19T12:28:56.164Z,99584.44
2023-04-19T12:31:22.790Z,99646.53
2023-04-19T12:33:51.609Z,99653.59
2023-04-19T12:36:18.159Z,99639.66
2023-04-19T12:38:44.600Z,99653.03
2023-04-19T12:41:11.537Z,99668.56
2023-04-19T12:43:38.180Z,99675.16
2023-04-19T12:46:05.707Z,99606.50
2023-04-19T12:48:32.241Z,99600.13
2023-04-19T12:50:58.958Z,99633.59
2023-04-19T12:53:27.197Z,99616.97
2023-04-19T12:55:53.718Z,99600.31
2023-04-19T12:58:20.757Z,99570.28
2023-04-19T13:00:47.562Z,99563.66
2023-04-19T13:03:14.139Z,99560.69
2023-04-19T13:05:41.877Z,99562.44
2023-04-19T13:08:08.761Z,99576.28
2023-04-19T13:10:35.445Z,99589.56
2023-04-19T13:13:01.857Z,99591.19
2023-04-19T13:15:28.256Z,99612.84
2023-04-19T13:17:54.996Z,99609.38
2023-04-19T13:20:22.441Z,99621.13
2023-04-19T13:22:48.973Z,99622.63
2023-04-19T13:25:15.766Z,99622.66
2023-04-19T13:27:42.624Z,99564.81
2023-04-19T13:30:10.556Z,99563.16
2023-04-19T13:32:40.302Z,99540.91
2023-04-19T13:35:07.240Z,99544.84
2023-04-19T13:37:38.529Z,99542.69
2023-04-19T13:40:18.071Z,99579.22
2023-04-19T13:42:46.492Z,99551.78
2023-04-19T13:45:15.462Z,99565.97
2023-04-19T13:47:44.179Z,99579.91
2023-04-19T13:50:11.162Z,99561.75
2023-04-19T13:52:40.103Z,99571.34
2023-04-19T13:55:07.151Z,99470.06
2023-04-19T13:57:33.684Z,99474.66
2023-04-19T14:00:00.444Z,99496.91
2023-04-19T14:02:28.536Z,99486.31
2023-04-19T14:04:55.842Z,99513.44
2023-04-19T14:07:22.231Z,99559.81
2023-04-19T14:09:48.712Z,99556.38
2023-04-19T14:12:15.096Z,99568.16
2023-04-19T14:14:41.591Z,99524.41
2023-04-19T14:17:08.016Z,99547.41
2023-04-19T14:19:34.389Z,99561.44
2023-04-19T14:22:01.077Z,99530.97
2023-04-19T14:24:27.795Z,99544.13
2023-04-19T14:27:09.125Z,99543.94
2023-04-19T14:29:37.221Z,99561.53
2023-04-19T14:32:17.138Z,99562.19
2023-04-19T14:34:50.799Z,99577.72
2023-04-19T14:37:17.930Z,99617.56
2023-04-19T14:39:45.299Z,99638.06
2023-04-19T14:42:12.115Z,99641.91
2023-04-19T14:44:38.443Z,99640.88
2023-04-19T14:47:04.902Z,99643.53
2023-04-19T14:49:31.651Z,99606.44
2023-04-19T14:51:58.290Z,99588.03
2023-04-19T14:54:25.253Z,99557.59
2023-04-19T14:56:52.017Z,99555.50
2023-04-19T14:59:18.601Z,99567.53
2023-04-19T15:01:45.084Z,99545.53
2023-04-19T15:04:12.159Z,99543.06
2023-04-19T15:06:40.826Z,99561.53
2023-04-19T15:09:08.396Z,99542.56
2023-04-19T15:11:34.863Z,99526.56
2023-04-19T15:14:01.325Z,99480.41
2023-04-19T15:16:28.090Z,99467.69
2023-04-19T15:18:55.105Z,99416.69
2023-04-19T15:21:24.337Z,99388.84
2023-04-19T15:23:51.454Z,99400.41
2023-04-19T15:26:20.333Z,99369.94
2023-04-19T15:28:49.208Z,99346.56
2023-04-19T15:31:15.720Z,99254.78
2023-04-19T15:33:42.429Z,99274.56
2023-04-19T15:36:09.239Z,99280.72
2023-04-19T15:38:36.168Z,99278.34
2023-04-19T15:41:02.925Z,99256.63
2023-04-19T15:43:29.476Z,99284.25
2023-04-19T15:45:56.206Z,99261.50
2023-04-19T15:48:22.846Z,99246.75
2023-04-19T15:50:50.728Z,99245.84
2023-04-19T15:53:17.538Z,99229.00
2023-04-19T15:55:45.973Z,99266.94
2023-04-19T15:58:12.391Z,99281.22
2023-04-19T16:00:38.876Z,99245.84
2023-04-19T16:03:05.470Z,99275.53
2023-04-19T16:05:32.201Z,99297.81
2023-04-19T16:08:06.942Z,99291.66
2023-04-19T16:10:34.349Z,99288.56
2023-04-19T16:13:01.429Z,99274.44
2023-04-19T16:15:28.759Z,99299.16
2023-04-19T16:17:55.873Z,99293.25
2023-04-19T16:20:22.693Z,99278.16
2023-04-19T16:22:49.322Z,99280.09
2023-04-19T16:25:16.415Z,99288.13
2023-04-19T16:27:44.318Z,99301.56
2023-04-19T16:30:12.278Z,99308.97
2023-04-19T16:32:39.637Z,99318.16
2023-04-19T16:35:07.598Z,99290.00
2023-04-19T16:37:34.579Z,99282.19
2023-04-19T16:40:08.487Z,99256.06
2023-04-19T16:42:35.777Z,99202.31
2023-04-19T16:45:02.559Z,99198.69
2023-04-19T16:47:29.153Z,99213.25
2023-04-19T16:49:56.777Z,99222.09
2023-04-19T16:52:25.373Z,99222.84
2023-04-19T16:54:56.896Z,99247.75
2023-04-19T16:57:23.648Z,99251.47
2023-04-19T16:59:50.731Z,99233.88
2023-04-19T17:02:17.779Z,99257.25
2023-04-19T17:04:44.668Z,99275.75
2023-04-19T17:07:12.158Z,99275.41
2023-04-19T17:09:38.737Z,99263.16
2023-04-19T17:12:05.775Z,99265.31
2023-04-19T17:14:34.532Z,99290.38
2023-04-19T17:17:01.383Z,99307.81
2023-04-19T17:19:27.961Z,99328.59
2023-04-19T17:21:54.499Z,99313.94
2023-04-19T17:24:20.974Z,99298.75
2023-04-19T17:26:47.866Z,99313.09
2023-04-19T17:29:14.263Z,99291.47
2023-04-19T17:31:42.121Z,99287.97
2023-04-19T17:34:08.634Z,99302.38
2023-04-19T17:36:35.184Z,99303.25
2023-04-19T17:39:01.585Z,99318.41
2023-04-19T17:41:28.344Z,99316.41
2023-04-19T17:43:54.812Z,99318.63
2023-04-19T17:46:21.229Z,99343.53
2023-04-19T17:48:47.770Z,99358.19
2023-04-19T17:51:14.538Z,99385.53
2023-04-19T17:53:41.230Z,99400.91
2023-04-19T17:56:07.720Z,99407.25
2023-04-19T17:58:34.193Z,99418.44
2023-04-19T18:01:00.641Z,99423.78
2023-04-19T18:03:27.484Z,99415.66
2023-04-19T18:05:54.135Z,99435.47
2023-04-19T18:08:20.620Z,99464.91
2023-04-19T18:10:47.201Z,99492.38
2023-04-19T18:13:16.572Z,99530.66
2023-04-19T18:15:42.963Z,99538.44
2023-04-19T18:18:09.471Z,99551.09
2023-04-19T18:20:36.505Z,99579.38
2023-04-19T18:23:02.946Z,99602.81
2023-04-19T18:25:29.705Z,99612.94
2023-04-19T18:27:56.165Z,99611.72
2023-04-19T18:30:23.041Z,99643.78
2023-04-19T18:32:49.496Z,99662.50
2023-04-19T18:35:16.120Z,99677.28
2023-04-19T18:37:42.940Z,99503.06
2023-04-19T18:40:11.935Z,99131.50
2023-04-19T18:42:38.681Z,98952.56
2023-04-19T18:45:05.712Z,98890.13
2023-04-19T18:47:32.277Z,98864.44
2023-04-19T18:50:05.191Z,98868.38
2023-04-19T18:52:35.402Z,98862.25
2023-04-19T18:55:02.483Z,98864.03
2023-04-19T18:57:30.479Z,98867.56
2023-04-19T19:00:00.945Z,98866.03
2023-04-19T19:02:28.103Z,98882.75
2023-04-19T19:04:57.775Z,98915.13
2023-04-19T19:07:36.323Z,98903.84
2023-04-19T19:10:15.955Z,98912.03
2023-04-19T19:12:44.601Z,98944.34
2023-04-19T19:15:11.301Z,98978.09
2023-04-19T19:17:38.119Z,99000.91
2023-04-19T19:20:05.829Z,99009.69
2023-04-19T19:22:32.898Z,99010.72
2023-04-19T19:24:59.413Z,99013.56
2023-04-19T19:27:26.114Z,99053.88
2023-04-19T19:29:52.844Z,99075.47
2023-04-19T19:32:19.575Z,99102.34
2023-04-19T19:34:55.602Z,99090.09
2023-04-19T19:37:27.734Z,99096.34
2023-04-19T19:39:56.737Z,99118.56
2023-04-19T19:42:25.506Z,99112.72
2023-04-19T19:44:55.499Z,99113.38
2023-04-19T19:47:23.451Z,99096.44
2023-04-19T19:50:34.929Z,99106.03
2023-04-19T19:52:40.577Z,99106.69
2023-04-19T19:55:08.502Z,99098.72
2023-04-19T20:00:22.937Z,99084.75
2023-04-19T20:02:56.048Z,99097.81
2023-04-19T20:05:26.815Z,99112.34
2023-04-19T20:08:05.821Z,99108.53
2023-04-19T20:10:34.504Z,99100.34
2023-04-19T20:13:01.445Z,99095.91
2023-04-19T20:18:08.775Z,99084.91
2023-04-19T20:20:36.558Z,99106.22
2023-04-19T20:23:03.481Z,99128.22
2023-04-19T20:25:30.894Z,99118.22
2023-04-19T20:27:57.346Z,99139.72
2023-04-19T20:30:24.753Z,99169.38
2023-04-19T20:32:51.246Z,99166.88
2023-04-19T20:35:19.475Z,99171.63
2023-04-19T20:37:46.569Z,99206.16
2023-04-19T20:40:15.083Z,99227.94
2023-04-19T20:42:42.379Z,99233.56
2023-04-19T20:45:11.451Z,99213.19
2023-04-19T20:47:40.483Z,99201.25
2023-04-19T20:50:08.482Z,99177.03
2023-04-19T20:52:35.474Z,99178.16
2023-04-19T20:55:01.962Z,99187.41
2023-04-19T20:57:28.422Z,99142.00
2023-04-19T20:59:55.263Z,99133.19
2023-04-19T21:02:21.759Z,99122.75
2023-04-19T21:04:50.867Z,99115.06
2023-04-19T21:07:17.279Z,99120.97
2023-04-19T21:09:43.986Z,99125.34
2023-04-19T21:12:10.716Z,99135.00
2023-04-19T21:14:39.880Z,99154.38
2023-04-19T21:17:06.950Z,99159.13
2023-04-19T21:19:33.323Z,99152.91
2023-04-19T21:22:01.034Z,99162.56
2023-04-19T21:24:27.750Z,99185.72
2023-04-19T21:26:54.528Z,99199.34
2023-04-19T21:29:21.619Z,99254.78
2023-04-19T21:31:48.044Z,99265.38
2023-04-19T21:34:14.596Z,99293.50
2023-04-19T21:36:41.063Z,99273.06
2023-04-19T21:39:09.378Z,99268.06
2023-04-19T21:41:36.921Z,99255.16
2023-04-19T21:44:05.784Z,99241.81
2023-04-19T21:46:32.532Z,99260.88
2023-04-19T21:48:58.951Z,99260.75
2023-04-19T21:51:28.032Z,99268.84
2023-04-19T21:53:54.854Z,99254.53
2023-04-19T21:56:23.904Z,99243.09
2023-04-19T21:58:52.274Z,99246.31
2023-04-19T22:01:18.692Z,99244.66
2023-04-19T22:03:45.808Z,99246.47
2023-04-19T22:06:12.369Z,99250.53
2023-04-19T22:08:39.364Z,99270.28
2023-04-19T22:11:06.117Z,99270.00
2023-04-19T22:13:32.518Z,99291.16
2023-04-19T22:15:59.378Z,99319.22
2023-04-19T22:18:26.099Z,99360.09
2023-04-19T22:20:52.458Z,99389.28
2023-04-19T22:23:19.089Z,99418.03
2023-04-19T22:25:45.645Z,99417.50
2023-04-19T22:28:12.156Z,99423.88
2023-04-19T22:30:38.603Z,99430.53
2023-04-19T22:33:07.498Z,99434.41
2023-04-19T22:35:33.879Z,99427.19
2023-04-19T22:38:00.509Z,99428.56
2023-04-19T22:40:27.009Z,99427.00
2023-04-19T22:43:00.868Z,99435.19
2023-04-19T22:45:30.526Z,99437.69
2023-04-19T22:47:57.003Z,99461.97
2023-04-19T22:50:23.604Z,99467.38
2023-04-19T22:52:50.386Z,99494.66
2023-04-19T22:55:16.874Z,99506.44
2023-04-19T22:57:43.261Z,99508.31
2023-04-19T23:00:10.115Z,99505.50
2023-04-19T23:02:38.454Z,99513.53
2023-04-19T23:05:06.414Z,99539.22
2023-04-19T23:07:35.424Z,99542.44
2023-04-19T23:10:01.845Z,99539.47
2023-04-19T23:12:28.287Z,99528.91
2023-04-19T23:14:54.636Z,99521.00
2023-04-19T23:17:21.140Z,99515.13
2023-04-19T23:19:48.926Z,99512.63
2023-04-19T23:22:15.588Z,99516.50
2023-04-19T23:24:44.323Z,99518.53
2023-04-19T23:27:12.553Z,99519.91
2023-04-19T23:29:39.097Z,99527.91
2023-04-19T23:32:05.849Z,99530.81
2023-04-19T23:34:32.416Z,99536.53
2023-04-19T23:36:59.931Z,99534.53
2023-04-19T23:39:26.464Z,99539.47
2023-04-19T23:41:52.939Z,99545.13
2023-04-19T23:44:19.373Z,99550.75
2023-04-19T23:46:45.775Z,99567.16
2023-04-19T23:49:12.362Z,99560.25
2023-04-19T23:51:38.879Z,99553.22
2023-04-19T23:54:08.089Z,99560.88
2023-04-19T23:56:34.806Z,99567.22
2023-04-19T23:59:03.373Z,99568.53
